createdAt,value
2023-11-25T00:01:59.943Z,1.68
2023-11-25T00:04:30.095Z,1.66
2023-11-25T00:07:00.163Z,1.64
2023-11-25T00:09:30.201Z,1.62
2023-11-25T00:12:02.915Z,1.61
2023-11-25T00:14:33.044Z,1.59
2023-11-25T00:17:03.170Z,1.55
2023-11-25T00:19:33.259Z,1.54
2023-11-25T00:22:03.399Z,1.53
2023-11-25T00:24:33.473Z,1.52
2023-11-25T00:27:06.175Z,1.49
2023-11-25T00:29:36.223Z,1.49
2023-11-25T00:32:06.376Z,1.47
2023-11-25T00:34:36.423Z,1.47
2023-11-25T00:37:07.729Z,1.43
2023-11-25T00:39:37.990Z,1.44
2023-11-25T00:42:11.666Z,1.43
2023-11-25T00:44:41.982Z,1.41
2023-11-25T00:47:14.688Z,1.41
2023-11-25T00:49:46.299Z,1.42
2023-11-25T00:52:16.381Z,1.40
2023-11-25T00:54:46.796Z,1.39
2023-11-25T00:57:19.448Z,1.36
2023-11-25T00:59:49.600Z,1.36
2023-11-25T01:02:19.852Z,1.36
2023-11-25T01:04:50.239Z,1.34
2023-11-25T01:07:21.883Z,1.36
2023-11-25T01:09:52.240Z,1.35
2023-11-25T01:12:24.966Z,1.35
2023-11-25T01:14:55.403Z,1.34
2023-11-25T01:17:27.599Z,1.32
2023-11-25T01:19:57.851Z,1.33
2023-11-25T01:22:28.037Z,1.32
2023-11-25T01:24:58.096Z,1.32
2023-11-25T01:27:30.793Z,1.35
2023-11-25T01:30:01.305Z,1.35
2023-11-25T01:32:31.525Z,1.37
2023-11-25T01:34:59.057Z,1.40
2023-11-25T01:37:31.215Z,1.42
2023-11-25T01:40:01.437Z,1.46
2023-11-25T01:42:34.141Z,1.46
2023-11-25T01:45:04.322Z,1.50
2023-11-25T01:47:35.323Z,1.52
2023-11-25T01:50:07.391Z,1.51
2023-11-25T01:52:39.168Z,1.53
2023-11-25T01:55:10.688Z,1.53
2023-11-25T01:57:43.546Z,1.55
2023-11-25T02:00:16.569Z,1.56
2023-11-25T02:02:46.963Z,1.57
2023-11-25T02:05:17.383Z,1.58
2023-11-25T02:07:47.735Z,1.61
2023-11-25T02:10:17.933Z,1.61
2023-11-25T02:12:50.679Z,1.63
2023-11-25T02:15:20.771Z,1.64
2023-11-25T02:17:52.139Z,1.65
2023-11-25T02:20:36.836Z,1.67
2023-11-25T02:23:20.090Z,1.69
2023-11-25T02:25:50.889Z,1.68
2023-11-25T02:28:21.714Z,1.67
2023-11-25T02:30:52.957Z,1.66
2023-11-25T02:33:23.400Z,1.65
2023-11-25T02:35:53.702Z,1.67
2023-11-25T02:38:26.344Z,1.71
2023-11-25T02:40:56.401Z,1.69
2023-11-25T02:43:27.706Z,1.72
2023-11-25T02:45:57.859Z,1.73
2023-11-25T02:48:27.985Z,1.76
2023-11-25T02:50:58.165Z,1.79
2023-11-25T02:53:31.526Z,1.79
2023-11-25T02:56:01.582Z,1.80
2023-11-25T02:58:33.746Z,1.80
2023-11-25T03:01:09.462Z,1.80
2023-11-25T03:03:44.114Z,1.79
2023-11-25T03:06:14.343Z,1.79
2023-11-25T03:08:47.207Z,1.80
2023-11-25T03:11:22.527Z,1.81
2023-11-25T03:13:52.965Z,1.78
2023-11-25T03:16:26.267Z,1.79
2023-11-25T03:18:56.582Z,1.79
2023-11-25T03:21:26.630Z,1.78
2023-11-25T03:24:00.733Z,1.75
2023-11-25T03:26:35.126Z,1.75
2023-11-25T03:29:05.236Z,1.75
2023-11-25T03:31:36.661Z,1.75
2023-11-25T03:34:06.900Z,1.73
2023-11-25T03:36:37.021Z,1.74
2023-11-25T03:39:11.238Z,1.74
2023-11-25T03:41:41.368Z,1.75
2023-11-25T03:44:11.564Z,1.75
2023-11-25T03:46:44.591Z,1.74
2023-11-25T03:49:14.860Z,1.74
2023-11-25T03:51:45.328Z,1.72
2023-11-25T03:54:18.022Z,1.71
2023-11-25T03:56:48.071Z,1.70
2023-11-25T03:59:18.906Z,1.68
2023-11-25T04:01:49.254Z,1.69
2023-11-25T04:04:19.555Z,1.70
2023-11-25T04:06:51.362Z,1.72
2023-11-25T04:09:24.342Z,1.77
2023-11-25T04:11:54.907Z,1.79
2023-11-25T04:14:26.970Z,1.79
2023-11-25T04:16:57.634Z,1.81
2023-11-25T04:19:28.418Z,1.81
2023-11-25T04:22:00.295Z,1.80
2023-11-25T04:24:35.848Z,1.81
2023-11-25T04:27:07.110Z,1.78
2023-11-25T04:29:37.169Z,1.77
2023-11-25T04:32:08.182Z,1.75
2023-11-25T04:34:38.371Z,1.73
2023-11-25T04:37:08.977Z,1.72
2023-11-25T04:39:41.661Z,1.73
2023-11-25T04:42:12.014Z,1.71
2023-11-25T04:44:42.018Z,1.69
2023-11-25T04:47:12.463Z,1.71
2023-11-25T04:49:44.101Z,1.69
2023-11-25T04:52:14.857Z,1.70
2023-11-25T04:54:48.051Z,1.71
2023-11-25T04:57:19.505Z,1.71
2023-11-25T04:59:49.608Z,1.73
2023-11-25T05:02:21.611Z,1.73
2023-11-25T05:04:51.860Z,1.75
2023-11-25T05:07:22.984Z,1.76
2023-11-25T05:09:55.841Z,1.79
2023-11-25T05:12:26.161Z,1.79
2023-11-25T05:14:56.256Z,1.76
2023-11-25T05:17:27.753Z,1.80
2023-11-25T05:19:58.150Z,1.81
2023-11-25T05:22:29.958Z,1.83
2023-11-25T05:25:03.544Z,1.81
2023-11-25T05:27:33.920Z,1.84
2023-11-25T05:30:04.365Z,1.83
2023-11-25T05:32:34.529Z,1.82
2023-11-25T05:35:06.961Z,1.80
2023-11-25T05:37:37.072Z,1.79
2023-11-25T05:40:13.067Z,1.75
2023-11-25T05:42:49.664Z,1.73
2023-11-25T05:45:21.934Z,1.73
2023-11-25T05:47:52.603Z,1.74
2023-11-25T05:50:23.949Z,1.74
2023-11-25T05:52:54.437Z,1.76
2023-11-25T05:55:27.891Z,1.74
2023-11-25T05:58:00.461Z,1.76
2023-11-25T06:00:31.611Z,1.73
2023-11-25T06:03:01.714Z,1.71
2023-11-25T06:05:31.935Z,1.72
2023-11-25T06:08:01.961Z,1.70
2023-11-25T06:10:34.628Z,1.68
2023-11-25T06:13:05.701Z,1.73
2023-11-25T06:15:35.797Z,1.75
2023-11-25T06:18:05.984Z,1.72
2023-11-25T06:20:36.080Z,1.72
2023-11-25T06:23:06.093Z,1.73
2023-11-25T06:25:38.908Z,1.73
2023-11-25T06:28:09.045Z,1.68
2023-11-25T06:30:40.526Z,1.64
2023-11-25T06:33:10.642Z,1.62
2023-11-25T06:35:40.750Z,1.60
2023-11-25T06:38:10.870Z,1.54
2023-11-25T06:40:43.870Z,1.51
2023-11-25T06:43:14.603Z,1.46
2023-11-25T06:45:45.587Z,1.43
2023-11-25T06:48:17.383Z,1.40
2023-11-25T06:50:47.511Z,1.39
2023-11-25T06:53:17.733Z,1.36
2023-11-25T06:55:50.540Z,1.33
2023-11-25T06:58:20.904Z,1.32
2023-11-25T07:00:51.220Z,1.31
2023-11-25T07:03:21.355Z,1.27
2023-11-25T07:05:51.554Z,1.27
2023-11-25T07:08:21.658Z,1.27
2023-11-25T07:11:00.688Z,1.28
2023-11-25T07:13:31.820Z,1.28
2023-11-25T07:16:03.426Z,1.32
2023-11-25T07:18:33.535Z,1.33
2023-11-25T07:21:04.303Z,1.32
2023-11-25T07:23:34.499Z,1.35
2023-11-25T07:26:07.250Z,1.44
2023-11-25T07:28:37.340Z,1.59
2023-11-25T07:31:08.932Z,1.71
2023-11-25T07:33:38.973Z,1.81
2023-11-25T07:36:10.385Z,1.84
2023-11-25T07:38:40.438Z,1.84
2023-11-25T07:41:19.151Z,1.92
2023-11-25T07:43:49.171Z,2.10
2023-11-25T07:46:19.335Z,2.32
2023-11-25T07:48:49.935Z,2.48
2023-11-25T07:51:20.530Z,2.61
2023-11-25T07:53:50.709Z,2.71
2023-11-25T07:56:23.501Z,2.85
2023-11-25T07:58:53.598Z,3.03
2023-11-25T08:01:24.472Z,3.19
2023-11-25T08:03:54.795Z,3.31
2023-11-25T08:06:26.980Z,3.44
2023-11-25T08:08:57.107Z,3.52
2023-11-25T08:11:36.383Z,3.53
2023-11-25T08:14:06.882Z,3.57
2023-11-25T08:16:37.359Z,3.75
2023-11-25T08:19:08.018Z,4.02
2023-11-25T08:21:39.349Z,4.20
2023-11-25T08:24:10.992Z,4.43
2023-11-25T08:26:43.970Z,4.88
2023-11-25T08:29:17.162Z,5.25
2023-11-25T08:31:47.604Z,5.73
2023-11-25T08:34:17.749Z,6.15
2023-11-25T08:36:54.191Z,6.56
2023-11-25T08:39:27.006Z,6.86
2023-11-25T08:42:00.475Z,7.15
2023-11-25T08:44:30.529Z,7.36
2023-11-25T08:47:00.814Z,7.58
2023-11-25T08:49:31.142Z,7.88
2023-11-25T08:52:01.240Z,8.16
2023-11-25T08:54:38.077Z,8.48
2023-11-25T08:57:12.809Z,8.72
2023-11-25T08:59:43.002Z,9.02
2023-11-25T09:02:14.390Z,9.23
2023-11-25T09:04:44.542Z,9.05
2023-11-25T09:07:16.069Z,8.73
2023-11-25T09:09:51.068Z,8.29
2023-11-25T09:12:23.909Z,7.86
2023-11-25T09:14:57.205Z,7.63
2023-11-25T09:17:27.323Z,7.40
2023-11-25T09:19:57.483Z,7.18
2023-11-25T09:22:27.725Z,6.91
2023-11-25T09:24:57.887Z,6.64
2023-11-25T09:27:30.638Z,6.40
2023-11-25T09:30:00.753Z,6.25
2023-11-25T09:32:30.929Z,6.09
2023-11-25T09:35:01.462Z,5.90
2023-11-25T09:37:31.707Z,5.76
2023-11-25T09:40:04.393Z,5.63
2023-11-25T09:42:37.628Z,5.53
2023-11-25T09:45:10.631Z,5.46
2023-11-25T09:47:41.775Z,5.49
2023-11-25T09:50:14.660Z,5.51
2023-11-25T09:52:50.866Z,5.59
2023-11-25T09:55:25.340Z,5.72
2023-11-25T09:58:03.342Z,6.04
2023-11-25T10:00:34.928Z,6.25
2023-11-25T10:03:07.480Z,6.19
2023-11-25T10:05:37.684Z,6.14
2023-11-25T10:08:08.447Z,6.10
2023-11-25T10:10:38.786Z,6.08
2023-11-25T10:13:17.029Z,6.08
2023-11-25T10:15:49.811Z,6.05
2023-11-25T10:18:19.894Z,5.99
2023-11-25T10:20:52.845Z,5.94
2023-11-25T10:23:25.475Z,5.85
2023-11-25T10:25:55.995Z,5.73
2023-11-25T10:28:34.197Z,5.71
2023-11-25T10:31:05.896Z,5.72
2023-11-25T10:33:38.912Z,5.72
2023-11-25T10:36:10.017Z,5.73
2023-11-25T10:38:43.794Z,5.75
2023-11-25T10:41:17.106Z,5.74
2023-11-25T10:43:51.213Z,5.64
2023-11-25T10:46:21.369Z,5.59
2023-11-25T10:48:53.369Z,5.70
2023-11-25T10:51:24.251Z,5.82
2023-11-25T10:53:55.365Z,5.92
2023-11-25T10:56:26.574Z,6.04
2023-11-25T10:59:00.273Z,5.99
2023-11-25T11:01:35.724Z,6.00
2023-11-25T11:04:13.198Z,5.99
2023-11-25T11:06:52.004Z,5.90
2023-11-25T11:09:23.978Z,5.76
2023-11-25T11:12:08.434Z,5.56
2023-11-25T11:14:48.685Z,5.35
2023-11-25T11:17:28.796Z,5.20
2023-11-25T11:20:02.262Z,5.10
2023-11-25T11:22:32.651Z,5.03
2023-11-25T11:25:14.022Z,4.96
2023-11-25T11:27:50.602Z,4.91
2023-11-25T11:30:32.625Z,4.84
2023-11-25T11:33:03.581Z,4.80
2023-11-25T11:35:41.471Z,4.76
2023-11-25T11:38:27.854Z,4.66
2023-11-25T11:40:59.699Z,4.63
2023-11-25T11:43:30.453Z,4.64
2023-11-25T11:46:05.709Z,4.65
2023-11-25T11:48:35.820Z,4.66
2023-11-25T11:51:06.002Z,4.66
2023-11-25T11:53:36.129Z,4.64
2023-11-25T11:56:06.553Z,4.66
2023-11-25T11:58:36.843Z,4.65
2023-11-25T12:01:15.802Z,4.65
2023-11-25T12:03:46.042Z,4.65
2023-11-25T12:06:18.039Z,4.63
2023-11-25T12:08:48.668Z,4.63
2023-11-25T12:11:21.121Z,4.58
2023-11-25T12:13:51.299Z,4.58
2023-11-25T12:16:24.286Z,4.56
2023-11-25T12:18:54.993Z,4.54
2023-11-25T12:21:26.866Z,4.53
2023-11-25T12:23:57.021Z,4.58
2023-11-25T12:26:29.889Z,4.66
2023-11-25T12:29:24.274Z,4.71
2023-11-25T12:31:57.172Z,4.72
2023-11-25T12:34:27.396Z,4.75
2023-11-25T12:36:57.837Z,4.77
2023-11-25T12:39:27.908Z,4.71
2023-11-25T12:41:58.107Z,4.65
2023-11-25T12:44:28.347Z,4.62
2023-11-25T12:47:10.065Z,4.57
2023-11-25T12:49:40.216Z,4.52
2023-11-25T12:52:10.388Z,4.52
2023-11-25T12:54:48.111Z,4.54
2023-11-25T12:57:19.291Z,4.54
2023-11-25T12:59:49.648Z,4.51
2023-11-25T13:02:22.910Z,4.50
2023-11-25T13:04:54.010Z,4.51
2023-11-25T13:07:34.568Z,4.52
2023-11-25T13:10:05.481Z,4.50
2023-11-25T13:12:37.851Z,4.46
2023-11-25T13:15:10.482Z,4.47
2023-11-25T13:17:43.610Z,4.45
2023-11-25T13:20:15.408Z,4.39
2023-11-25T13:22:45.986Z,4.32
2023-11-25T13:25:20.682Z,4.28
2023-11-25T13:27:50.891Z,4.26
2023-11-25T13:30:21.419Z,4.24
2023-11-25T13:32:56.366Z,4.24
2023-11-25T13:35:26.706Z,4.21
2023-11-25T13:37:57.179Z,4.14
2023-11-25T13:40:31.296Z,4.07
2023-11-25T13:43:01.445Z,4.00
2023-11-25T13:45:32.686Z,3.94
2023-11-25T13:48:06.654Z,3.91
2023-11-25T13:50:37.813Z,3.86
2023-11-25T13:53:09.570Z,3.84
2023-11-25T13:55:44.688Z,3.83
2023-11-25T13:58:17.118Z,3.86
2023-11-25T14:00:49.929Z,3.84
2023-11-25T14:03:22.789Z,3.84
2023-11-25T14:05:54.811Z,3.85
2023-11-25T14:08:29.654Z,3.83
2023-11-25T14:10:59.941Z,3.81
2023-11-25T14:13:32.989Z,3.79
2023-11-25T14:16:03.361Z,3.74
2023-11-25T14:18:36.034Z,3.73
2023-11-25T14:21:07.943Z,3.71
2023-11-25T14:23:38.019Z,3.69
2023-11-25T14:26:08.268Z,3.67
2023-11-25T14:28:39.237Z,3.61
2023-11-25T14:31:10.332Z,3.61
2023-11-25T14:33:43.344Z,3.61
2023-11-25T14:36:15.255Z,3.65
2023-11-25T14:38:47.696Z,3.69
2023-11-25T14:41:24.132Z,3.69
2023-11-25T14:43:54.876Z,3.66
2023-11-25T14:46:25.361Z,3.61
2023-11-25T14:48:58.049Z,3.58
2023-11-25T14:51:28.181Z,3.57
2023-11-25T14:53:58.250Z,3.54
2023-11-25T14:56:28.369Z,3.50
2023-11-25T14:58:58.497Z,3.43
2023-11-25T15:01:28.713Z,3.43
2023-11-25T15:04:01.605Z,3.42
2023-11-25T15:06:35.225Z,3.39
2023-11-25T15:09:05.422Z,3.39
2023-11-25T15:11:36.352Z,3.39
2023-11-25T15:14:06.480Z,3.37
2023-11-25T15:16:36.674Z,3.34
2023-11-25T15:19:09.430Z,3.35
2023-11-25T15:21:39.552Z,3.35
2023-11-25T15:24:11.388Z,3.35
2023-11-25T15:26:46.023Z,3.30
2023-11-25T15:29:16.970Z,3.28
2023-11-25T15:31:48.305Z,3.27
2023-11-25T15:34:21.841Z,3.29
2023-11-25T15:36:51.967Z,3.27
2023-11-25T15:39:27.754Z,3.24
2023-11-25T15:41:57.994Z,3.25
2023-11-25T15:44:28.038Z,3.25
2023-11-25T15:46:58.162Z,3.25
2023-11-25T15:49:30.873Z,3.25
2023-11-25T15:52:01.096Z,3.26
2023-11-25T15:54:32.742Z,3.27
2023-11-25T15:57:03.215Z,3.26
2023-11-25T15:59:35.950Z,3.25
2023-11-25T16:02:06.310Z,3.26
2023-11-25T16:04:40.078Z,3.23
2023-11-25T16:07:14.435Z,3.19
2023-11-25T16:09:45.613Z,3.20
2023-11-25T16:12:17.821Z,3.19
2023-11-25T16:14:48.149Z,3.18
2023-11-25T16:17:20.366Z,3.18
2023-11-25T16:19:53.418Z,3.19
2023-11-25T16:22:23.565Z,3.22
2023-11-25T16:24:53.796Z,3.23
2023-11-25T16:27:24.050Z,3.31
2023-11-25T16:29:56.231Z,3.36
2023-11-25T16:32:26.776Z,3.37
2023-11-25T16:34:59.653Z,3.35
2023-11-25T16:37:30.351Z,3.32
2023-11-25T16:40:01.762Z,3.32
2023-11-25T16:42:32.497Z,3.32
2023-11-25T16:45:02.616Z,3.33
2023-11-25T16:47:34.446Z,3.30
2023-11-25T16:50:09.197Z,3.29
2023-11-25T16:52:39.488Z,3.27
2023-11-25T16:55:10.539Z,3.24
2023-11-25T16:57:41.112Z,3.21
2023-11-25T17:00:17.765Z,3.21
2023-11-25T17:02:48.236Z,3.20
2023-11-25T17:05:21.174Z,3.22
2023-11-25T17:07:51.326Z,3.21
2023-11-25T17:10:22.679Z,3.20
2023-11-25T17:12:52.769Z,3.20
2023-11-25T17:15:22.808Z,3.20
2023-11-25T17:17:52.968Z,3.18
2023-11-25T17:20:25.914Z,3.17
2023-11-25T17:22:58.504Z,3.15
2023-11-25T17:25:31.584Z,3.14
2023-11-25T17:28:02.206Z,3.13
2023-11-25T17:30:36.611Z,3.07
2023-11-25T17:33:07.684Z,3.05
2023-11-25T17:35:40.663Z,3.05
2023-11-25T17:38:10.823Z,3.04
2023-11-25T17:40:41.216Z,3.04
2023-11-25T17:43:11.349Z,3.05
2023-11-25T17:45:44.360Z,3.05
2023-11-25T17:48:14.417Z,3.07
2023-11-25T17:50:47.824Z,3.06
2023-11-25T17:53:20.713Z,3.06
2023-11-25T17:55:50.793Z,3.12
2023-11-25T17:58:21.011Z,3.22
2023-11-25T18:00:52.550Z,3.23
2023-11-25T18:03:24.448Z,3.16
2023-11-25T18:05:57.601Z,3.11
2023-11-25T18:08:30.168Z,3.07
2023-11-25T18:11:00.300Z,3.04
2023-11-25T18:13:30.486Z,3.01
2023-11-25T18:16:00.609Z,3.01
2023-11-25T18:18:31.522Z,2.99
2023-11-25T18:21:04.358Z,2.94
2023-11-25T18:23:35.292Z,2.91
2023-11-25T18:26:05.834Z,2.89
2023-11-25T18:28:39.284Z,2.87
2023-11-25T18:31:10.029Z,2.86
2023-11-25T18:33:40.327Z,2.86
2023-11-25T18:36:13.223Z,2.85
2023-11-25T18:38:43.792Z,2.83
2023-11-25T18:41:13.938Z,2.82
2023-11-25T18:43:44.104Z,2.82
2023-11-25T18:46:14.435Z,2.79
2023-11-25T18:48:44.951Z,2.76
2023-11-25T18:51:17.880Z,2.72
2023-11-25T18:53:47.992Z,2.68
2023-11-25T18:56:18.231Z,2.64
2023-11-25T18:58:48.347Z,2.63
2023-11-25T19:01:33.119Z,2.58
2023-11-25T19:04:04.024Z,2.54
2023-11-25T19:06:48.256Z,2.50
2023-11-25T19:09:18.955Z,2.45
2023-11-25T19:11:50.324Z,2.40
2023-11-25T19:14:20.994Z,2.36
2023-11-25T19:16:51.169Z,2.29
2023-11-25T19:19:21.567Z,2.25
2023-11-25T19:21:54.232Z,2.19
2023-11-25T19:24:24.270Z,2.18
2023-11-25T19:26:54.508Z,2.13
2023-11-25T19:29:24.564Z,2.08
2023-11-25T19:31:54.670Z,2.05
2023-11-25T19:34:24.760Z,2.02
2023-11-25T19:36:57.576Z,1.98
2023-11-25T19:39:43.300Z,1.95
2023-11-25T19:42:13.479Z,1.92
2023-11-25T19:44:43.565Z,1.89
2023-11-25T19:47:13.946Z,1.88
2023-11-25T19:49:44.083Z,1.83
2023-11-25T19:52:16.851Z,1.77
2023-11-25T19:54:46.851Z,1.73
2023-11-25T19:57:17.003Z,1.70
2023-11-25T19:59:48.671Z,1.68
2023-11-25T20:02:18.939Z,1.67
2023-11-25T20:04:49.280Z,1.66
2023-11-25T20:07:22.068Z,1.64
2023-11-25T20:09:52.805Z,1.63
2023-11-25T20:12:23.141Z,1.60
2023-11-25T20:14:53.629Z,1.55
2023-11-25T20:17:25.049Z,1.50
2023-11-25T20:19:57.644Z,1.48
2023-11-25T20:22:30.866Z,1.47
2023-11-25T20:25:02.545Z,1.47
2023-11-25T20:27:32.852Z,1.47
2023-11-25T20:30:02.994Z,1.49
2023-11-25T20:32:33.857Z,1.49
2023-11-25T20:35:04.918Z,1.50
2023-11-25T20:37:37.695Z,1.53
2023-11-25T20:40:10.003Z,1.52
2023-11-25T20:42:42.643Z,1.52
2023-11-25T20:45:13.253Z,1.51
2023-11-25T20:47:43.410Z,1.51
2023-11-25T20:50:14.109Z,1.50
2023-11-25T20:52:48.121Z,1.48
2023-11-25T20:55:18.427Z,1.44
2023-11-25T20:57:48.595Z,1.45
2023-11-25T21:00:19.359Z,1.41
2023-11-25T21:02:49.689Z,1.38
2023-11-25T21:05:20.876Z,1.37
2023-11-25T21:07:53.916Z,1.36
2023-11-25T21:10:24.043Z,1.35
2023-11-25T21:12:54.104Z,1.37
2023-11-25T21:15:26.026Z,1.39
2023-11-25T21:17:56.160Z,1.42
2023-11-25T21:20:26.223Z,1.42
2023-11-25T21:22:59.003Z,1.43
2023-11-25T21:25:29.103Z,1.43
2023-11-25T21:27:59.373Z,1.41
2023-11-25T21:30:29.518Z,1.40
2023-11-25T21:33:00.012Z,1.39
2023-11-25T21:35:30.633Z,1.39
2023-11-25T21:38:05.192Z,1.40
2023-11-25T21:40:35.785Z,1.41
2023-11-25T21:43:05.880Z,1.40
2023-11-25T21:45:37.205Z,1.41
2023-11-25T21:48:07.721Z,1.41
2023-11-25T21:50:37.891Z,1.40
2023-11-25T21:53:10.691Z,1.39
2023-11-25T21:55:40.879Z,1.40
2023-11-25T21:58:11.008Z,1.38
2023-11-25T22:00:41.099Z,1.36
2023-11-25T22:03:11.263Z,1.37
2023-11-25T22:05:41.619Z,1.36
2023-11-25T22:08:14.307Z,1.34
2023-11-25T22:10:44.742Z,1.31
2023-11-25T22:13:14.970Z,1.31
2023-11-25T22:15:45.250Z,1.30
2023-11-25T22:18:15.513Z,1.27
2023-11-25T22:20:45.658Z,1.27
2023-11-25T22:23:18.549Z,1.24
2023-11-25T22:26:02.465Z,1.23
2023-11-25T22:28:32.677Z,1.22
2023-11-25T22:31:05.936Z,1.22
2023-11-25T22:33:33.615Z,1.23
2023-11-25T22:36:04.401Z,1.23
2023-11-25T22:38:51.450Z,1.23
2023-11-25T22:41:22.828Z,1.25
2023-11-25T22:43:55.014Z,1.27
2023-11-25T22:46:28.111Z,1.28
2023-11-25T22:48:59.507Z,1.28
2023-11-25T22:51:29.655Z,1.31
2023-11-25T22:54:02.307Z,1.31
2023-11-25T22:56:32.759Z,1.35
2023-11-25T22:59:03.078Z,1.37
2023-11-25T23:01:35.533Z,1.37
2023-11-25T23:04:07.047Z,1.36
2023-11-25T23:06:40.578Z,1.35
2023-11-25T23:09:16.890Z,1.35
2023-11-25T23:11:46.974Z,1.34
2023-11-25T23:14:17.192Z,1.34
2023-11-25T23:16:47.321Z,1.34
2023-11-25T23:19:17.855Z,1.37
2023-11-25T23:21:48.099Z,1.36
2023-11-25T23:24:21.334Z,1.38
2023-11-25T23:26:52.448Z,1.39
2023-11-25T23:29:25.526Z,1.39
2023-11-25T23:31:58.958Z,1.40
2023-11-25T23:34:29.097Z,1.40
2023-11-25T23:36:59.381Z,1.39
2023-11-25T23:39:32.181Z,1.42
2023-11-25T23:42:02.293Z,1.39
2023-11-25T23:44:34.453Z,1.35
2023-11-25T23:47:04.548Z,1.36
2023-11-25T23:49:34.641Z,1.35
2023-11-25T23:52:04.678Z,1.35
2023-11-25T23:54:41.999Z,1.33
2023-11-25T23:57:12.308Z,1.32
2023-11-25T23:59:42.612Z,1.33
